DLJ155H LEZL-GCRR
Flight info
| Callsign | DLJ155H |
|---|---|
| Flight time | N/A |
| Altitude | 35000 |
| Route | CLANA N857 KORNO UN857 TERTO |
| Aircraft | C525/L-SDFGRWY/S |
Departure
| Time | 2026-04-27 19:32 |
|---|---|
| Airport | Seville Airport (LEZL) |
Arrival
| Time | N/A |
|---|---|
| Airport | César Manrique-Lanzarote Airport (GCRR) |
| Time | Latitude | Longitude | Altitude | Speed | Heading |
|---|---|---|---|---|---|
| 2026-04-27 19:24 | 37.42039 | -5.90481 | 81 ft | 0 kts | 269° |
| 2026-04-27 19:28 | 37.42039 | -5.90482 | 81 ft | 0 kts | 270° |
| 2026-04-27 19:28 | 37.42039 | -5.90511 | 81 ft | 6 kts | 270° |
| 2026-04-27 19:28 | 37.42024 | -5.90522 | 80 ft | 7 kts | 187° |
| 2026-04-27 19:29 | 37.42005 | -5.90527 | 80 ft | 8 kts | 192° |
| 2026-04-27 19:29 | 37.41977 | -5.90596 | 80 ft | 11 kts | 269° |
| 2026-04-27 19:29 | 37.41977 | -5.90712 | 79 ft | 15 kts | 268° |
| 2026-04-27 19:30 | 37.41976 | -5.90871 | 77 ft | 20 kts | 269° |
| 2026-04-27 19:30 | 37.41922 | -5.91042 | 77 ft | 21 kts | 240° |
| 2026-04-27 19:30 | 37.41847 | -5.91184 | 74 ft | 15 kts | 206° |
| 2026-04-27 19:30 | 37.41787 | -5.91125 | 74 ft | 4 kts | 90° |
| 2026-04-27 19:31 | 37.41787 | -5.91124 | 74 ft | 0 kts | 90° |
| 2026-04-27 19:31 | 37.41787 | -5.91073 | 75 ft | 30 kts | 87° |
| 2026-04-27 19:32 | 37.41788 | -5.90493 | 79 ft | 100 kts | 90° |
| 2026-04-27 19:32 | 37.41788 | -5.89448 | 293 ft | 130 kts | 91° |
| 2026-04-27 19:32 | 37.41734 | -5.88332 | 817 ft | 119 kts | 90° |
| 2026-04-27 19:32 | 37.41841 | -5.87428 | 1395 ft | 97 kts | 82° |
| 2026-04-27 19:33 | 37.41778 | -5.86443 | 1568 ft | 118 kts | 101° |
| 2026-04-27 19:33 | 37.41740 | -5.85815 | 1982 ft | 100 kts | 82° |
| 2026-04-27 19:33 | 37.41792 | -5.84546 | 2370 ft | 108 kts | 88° |
| 2026-04-27 19:33 | 37.41791 | -5.83669 | 2749 ft | 105 kts | 89° |
| 2026-04-27 19:34 | 37.41648 | -5.82753 | 3050 ft | 112 kts | 132° |
| 2026-04-27 19:34 | 37.40861 | -5.82519 | 3430 ft | 118 kts | 186° |
| 2026-04-27 19:34 | 37.40082 | -5.82755 | 3840 ft | 113 kts | 191° |
| 2026-04-27 19:34 | 37.39255 | -5.83031 | 4189 ft | 112 kts | 191° |
| 2026-04-27 19:35 | 37.38461 | -5.83292 | 4471 ft | 117 kts | 191° |
| 2026-04-27 19:35 | 37.37649 | -5.83550 | 4867 ft | 109 kts | 188° |
| 2026-04-27 19:35 | 37.36857 | -5.83446 | 5049 ft | 119 kts | 168° |
| 2026-04-27 19:35 | 37.36063 | -5.83439 | 5489 ft | 108 kts | 188° |
| 2026-04-27 19:36 | 37.35274 | -5.83832 | 5698 ft | 119 kts | 209° |
| 2026-04-27 19:36 | 37.34594 | -5.84385 | 6062 ft | 113 kts | 200° |
| 2026-04-27 19:36 | 37.33804 | -5.84795 | 6296 ft | 120 kts | 218° |
| 2026-04-27 19:36 | 37.33244 | -5.85524 | 6663 ft | 114 kts | 226° |
| 2026-04-27 19:37 | 37.32687 | -5.86289 | 6898 ft | 118 kts | 223° |
| 2026-04-27 19:37 | 37.32125 | -5.86986 | 7223 ft | 113 kts | 220° |
| 2026-04-27 19:37 | 37.31523 | -5.87670 | 7470 ft | 116 kts | 219° |
| 2026-04-27 19:37 | 37.30904 | -5.88347 | 7787 ft | 113 kts | 219° |
| 2026-04-27 19:38 | 37.30271 | -5.89027 | 8077 ft | 114 kts | 219° |
| 2026-04-27 19:38 | 37.29653 | -5.89687 | 8367 ft | 114 kts | 219° |
| 2026-04-27 19:38 | 37.29015 | -5.90370 | 8676 ft | 112 kts | 220° |
| 2026-04-27 19:38 | 37.28392 | -5.91036 | 8946 ft | 114 kts | 220° |
| 2026-04-27 19:39 | 37.27756 | -5.91714 | 9259 ft | 112 kts | 220° |
| 2026-04-27 19:39 | 37.27135 | -5.92377 | 9521 ft | 113 kts | 221° |
| 2026-04-27 19:39 | 37.26512 | -5.93043 | 9804 ft | 112 kts | 220° |
| 2026-04-27 19:39 | 37.25872 | -5.93726 | 10065 ft | 113 kts | 221° |
| 2026-04-27 19:40 | 37.25239 | -5.94401 | 10339 ft | 113 kts | 220° |
| 2026-04-27 19:40 | 37.24606 | -5.95077 | 10593 ft | 114 kts | 220° |
| 2026-04-27 19:40 | 37.23964 | -5.95762 | 10866 ft | 113 kts | 220° |
| 2026-04-27 19:40 | 37.23340 | -5.96428 | 11128 ft | 113 kts | 220° |
| 2026-04-27 19:41 | 37.22695 | -5.97115 | 11385 ft | 114 kts | 221° |
| 2026-04-27 19:41 | 37.22067 | -5.97785 | 11649 ft | 113 kts | 221° |
| 2026-04-27 19:41 | 37.21417 | -5.98477 | 11901 ft | 114 kts | 221° |
| 2026-04-27 19:41 | 37.20787 | -5.99149 | 12189 ft | 113 kts | 221° |
| 2026-04-27 19:42 | 37.20143 | -5.99835 | 12460 ft | 114 kts | 221° |
| 2026-04-27 19:42 | 37.19519 | -6.00500 | 12715 ft | 114 kts | 221° |
| 2026-04-27 19:42 | 37.18887 | -6.01173 | 12970 ft | 113 kts | 221° |
| 2026-04-27 19:42 | 37.18246 | -6.01854 | 13196 ft | 114 kts | 221° |
| 2026-04-27 19:43 | 37.17613 | -6.02529 | 13452 ft | 114 kts | 221° |
| 2026-04-27 19:43 | 37.16978 | -6.03205 | 13667 ft | 115 kts | 221° |
| 2026-04-27 19:43 | 37.16323 | -6.03901 | 13940 ft | 115 kts | 221° |
| 2026-04-27 19:43 | 37.15684 | -6.04580 | 14169 ft | 116 kts | 221° |
| 2026-04-27 19:44 | 37.15029 | -6.05277 | 14423 ft | 116 kts | 220° |
| 2026-04-27 19:44 | 37.14377 | -6.05970 | 14654 ft | 116 kts | 220° |
| 2026-04-27 19:44 | 37.13719 | -6.06670 | 14891 ft | 116 kts | 220° |
| 2026-04-27 19:44 | 37.13064 | -6.07365 | 15124 ft | 117 kts | 220° |
| 2026-04-27 19:45 | 37.12409 | -6.08061 | 15342 ft | 117 kts | 220° |
| 2026-04-27 19:45 | 37.11755 | -6.08756 | 15560 ft | 118 kts | 220° |
| 2026-04-27 19:45 | 37.11090 | -6.09463 | 15794 ft | 118 kts | 220° |
| 2026-04-27 19:45 | 37.10424 | -6.10170 | 16003 ft | 118 kts | 220° |
| 2026-04-27 19:46 | 37.09758 | -6.10875 | 16215 ft | 119 kts | 220° |
| 2026-04-27 19:46 | 37.09090 | -6.11585 | 16424 ft | 119 kts | 220° |
| 2026-04-27 19:46 | 37.08425 | -6.12291 | 16642 ft | 118 kts | 219° |
| 2026-04-27 19:46 | 37.07758 | -6.12998 | 16851 ft | 119 kts | 219° |
| 2026-04-27 19:47 | 37.07086 | -6.13710 | 17042 ft | 120 kts | 219° |
| 2026-04-27 19:47 | 37.06411 | -6.14426 | 17244 ft | 120 kts | 219° |
| 2026-04-27 19:47 | 37.05730 | -6.15147 | 17439 ft | 121 kts | 219° |
| 2026-04-27 19:47 | 37.05054 | -6.15863 | 17634 ft | 121 kts | 219° |
| 2026-04-27 19:48 | 37.04370 | -6.16588 | 17825 ft | 122 kts | 219° |
| 2026-04-27 19:48 | 37.03686 | -6.17312 | 18015 ft | 122 kts | 219° |
| 2026-04-27 19:48 | 37.03004 | -6.18035 | 18193 ft | 123 kts | 220° |
| 2026-04-27 19:48 | 37.02314 | -6.18764 | 18366 ft | 124 kts | 219° |
| 2026-04-27 19:49 | 37.01638 | -6.19480 | 18555 ft | 123 kts | 219° |
| 2026-04-27 19:49 | 37.00942 | -6.20216 | 18736 ft | 124 kts | 219° |
| 2026-04-27 19:49 | 37.00261 | -6.20937 | 18921 ft | 124 kts | 219° |
| 2026-04-27 19:49 | 36.99575 | -6.21662 | 19101 ft | 124 kts | 219° |
| 2026-04-27 19:50 | 36.98899 | -6.22377 | 19253 ft | 126 kts | 218° |
| 2026-04-27 19:50 | 36.98205 | -6.23111 | 19429 ft | 126 kts | 218° |
| 2026-04-27 19:50 | 36.97511 | -6.23844 | 19574 ft | 127 kts | 218° |
| 2026-04-27 19:50 | 36.96801 | -6.24594 | 19736 ft | 128 kts | 218° |
| 2026-04-27 19:51 | 36.96096 | -6.25338 | 19887 ft | 129 kts | 218° |
| 2026-04-27 19:51 | 36.95391 | -6.26083 | 20058 ft | 128 kts | 218° |
| 2026-04-27 19:51 | 36.94671 | -6.26842 | 20209 ft | 130 kts | 219° |
| 2026-04-27 19:51 | 36.93955 | -6.27598 | 20381 ft | 129 kts | 218° |
| 2026-04-27 19:52 | 36.93250 | -6.28343 | 20521 ft | 131 kts | 219° |
| 2026-04-27 19:52 | 36.92529 | -6.29103 | 20688 ft | 130 kts | 218° |
| 2026-04-27 19:52 | 36.91817 | -6.29854 | 20818 ft | 132 kts | 218° |
| 2026-04-27 19:52 | 36.91093 | -6.30617 | 20982 ft | 131 kts | 218° |
| 2026-04-27 19:53 | 36.89649 | -6.32138 | 21272 ft | 132 kts | 218° |
| 2026-04-27 19:53 | 36.88928 | -6.32898 | 21403 ft | 134 kts | 218° |
| 2026-04-27 19:53 | 36.88185 | -6.33681 | 21564 ft | 134 kts | 218° |
| 2026-04-27 19:54 | 36.87458 | -6.34447 | 21703 ft | 134 kts | 218° |
| 2026-04-27 19:54 | 36.86728 | -6.35215 | 21858 ft | 134 kts | 218° |
| 2026-04-27 19:54 | 36.85998 | -6.35983 | 21997 ft | 135 kts | 218° |
| 2026-04-27 19:54 | 36.85260 | -6.36760 | 22141 ft | 135 kts | 218° |
| 2026-04-27 19:55 | 36.84533 | -6.37524 | 22273 ft | 136 kts | 218° |
| 2026-04-27 19:55 | 36.83792 | -6.38303 | 22397 ft | 137 kts | 218° |
| 2026-04-27 19:55 | 36.83046 | -6.39088 | 22566 ft | 138 kts | 218° |
| 2026-04-27 19:55 | 36.82299 | -6.39873 | 22725 ft | 139 kts | 218° |
| 2026-04-27 19:56 | 36.81552 | -6.40658 | 22886 ft | 139 kts | 218° |
| 2026-04-27 19:56 | 36.80795 | -6.41453 | 23061 ft | 139 kts | 217° |
| 2026-04-27 19:56 | 36.80047 | -6.42238 | 23210 ft | 140 kts | 217° |
| 2026-04-27 19:56 | 36.79293 | -6.43029 | 23376 ft | 140 kts | 217° |
| 2026-04-27 19:57 | 36.78536 | -6.43824 | 23546 ft | 140 kts | 218° |
| 2026-04-27 19:57 | 36.77770 | -6.44628 | 23700 ft | 141 kts | 218° |
| 2026-04-27 19:57 | 36.77017 | -6.45418 | 23862 ft | 141 kts | 218° |
| 2026-04-27 19:57 | 36.76252 | -6.46221 | 24021 ft | 141 kts | 218° |
| 2026-04-27 19:58 | 36.75486 | -6.47024 | 24164 ft | 142 kts | 218° |
| 2026-04-27 19:58 | 36.74719 | -6.47828 | 24318 ft | 142 kts | 218° |
| 2026-04-27 19:58 | 36.73951 | -6.48632 | 24454 ft | 143 kts | 218° |
| 2026-04-27 19:58 | 36.73175 | -6.49445 | 24608 ft | 143 kts | 218° |
| 2026-04-27 19:59 | 36.72410 | -6.50246 | 24752 ft | 144 kts | 218° |
| 2026-04-27 19:59 | 36.71631 | -6.51062 | 24897 ft | 144 kts | 218° |
| 2026-04-27 19:59 | 36.70859 | -6.51870 | 25035 ft | 144 kts | 218° |
| 2026-04-27 19:59 | 36.70077 | -6.52688 | 25180 ft | 144 kts | 218° |
| 2026-04-27 20:00 | 36.69302 | -6.53499 | 25323 ft | 144 kts | 218° |
| 2026-04-27 20:00 | 36.68531 | -6.54306 | 25449 ft | 145 kts | 218° |
| 2026-04-27 20:00 | 36.67750 | -6.55122 | 25598 ft | 145 kts | 218° |
| 2026-04-27 20:00 | 36.66964 | -6.55943 | 25727 ft | 145 kts | 218° |
| 2026-04-27 20:01 | 36.66185 | -6.56757 | 25849 ft | 146 kts | 218° |
| 2026-04-27 20:01 | 36.65396 | -6.57581 | 25985 ft | 146 kts | 218° |
| 2026-04-27 20:01 | 36.64618 | -6.58394 | 26102 ft | 147 kts | 218° |
| 2026-04-27 20:01 | 36.63826 | -6.59221 | 26220 ft | 148 kts | 218° |
| 2026-04-27 20:02 | 36.63042 | -6.60039 | 26357 ft | 147 kts | 218° |
| 2026-04-27 20:02 | 36.62253 | -6.60863 | 26462 ft | 149 kts | 218° |
| 2026-04-27 20:02 | 36.61456 | -6.61695 | 26587 ft | 149 kts | 218° |
| 2026-04-27 20:02 | 36.60665 | -6.62519 | 26712 ft | 148 kts | 218° |
| 2026-04-27 20:03 | 36.59874 | -6.63344 | 26832 ft | 149 kts | 218° |
| 2026-04-27 20:03 | 36.59081 | -6.64171 | 26939 ft | 150 kts | 218° |
| 2026-04-27 20:03 | 36.58284 | -6.65001 | 27068 ft | 149 kts | 218° |
| 2026-04-27 20:03 | 36.57497 | -6.65822 | 27176 ft | 150 kts | 218° |
| 2026-04-27 20:04 | 36.56692 | -6.66660 | 27291 ft | 150 kts | 218° |